createdAt,value
2018-03-07T00:00:00.763Z,24.60
2018-03-07T00:01:00.681Z,26.30
2018-03-07T00:02:00.605Z,26.30
2018-03-07T00:03:00.524Z,26.90
2018-03-07T00:04:00.447Z,26.50
2018-03-07T00:05:00.369Z,26.60
2018-03-07T00:06:00.288Z,26.90
2018-03-07T00:07:00.209Z,25.30
2018-03-07T00:08:00.131Z,26.40
2018-03-07T00:09:00.052Z,27.10
2018-03-07T00:09:59.974Z,26.60
2018-03-07T00:10:59.896Z,26.60
2018-03-07T00:11:59.815Z,26.80
2018-03-07T00:12:59.736Z,25.60
2018-03-07T00:13:59.657Z,26.70
2018-03-07T00:14:59.579Z,27.30
2018-03-07T00:15:59.501Z,26.80
2018-03-07T00:16:59.423Z,25.30
2018-03-07T00:17:59.343Z,27.40
2018-03-07T00:18:59.264Z,26.30
2018-03-07T00:19:59.186Z,25.80
2018-03-07T00:20:59.105Z,27.10
2018-03-07T00:21:59.026Z,26.60
2018-03-07T00:22:58.948Z,26.10
2018-03-07T00:23:58.870Z,25.80
2018-03-07T00:24:58.790Z,26.20
2018-03-07T00:25:58.711Z,25.70
2018-03-07T00:26:58.783Z,25.60
2018-03-07T00:27:58.554Z,25.40
2018-03-07T00:28:58.475Z,25.40
2018-03-07T00:29:58.396Z,25.20
2018-03-07T00:30:58.318Z,24.90
2018-03-07T00:31:58.239Z,26.70
2018-03-07T00:32:58.159Z,24.90
2018-03-07T00:33:58.081Z,24.90
2018-03-07T00:34:58.002Z,24.60
2018-03-07T00:35:57.927Z,24.10
2018-03-07T00:36:57.844Z,24.40
2018-03-07T00:37:57.768Z,24.70
2018-03-07T00:38:57.687Z,22.90
2018-03-07T00:39:57.608Z,25.00
2018-03-07T00:40:57.529Z,24.30
2018-03-07T00:41:57.449Z,24.40
2018-03-07T00:42:57.372Z,24.30
2018-03-07T00:43:57.292Z,23.30
2018-03-07T00:44:57.211Z,23.50
2018-03-07T00:45:57.138Z,23.70
2018-03-07T00:46:57.055Z,22.90
2018-03-07T00:47:56.977Z,21.80
2018-03-07T00:48:56.896Z,21.70
2018-03-07T00:49:56.818Z,23.20
2018-03-07T00:50:56.739Z,23.30
2018-03-07T00:51:56.661Z,23.20
2018-03-07T00:52:56.581Z,22.40
2018-03-07T00:53:56.502Z,22.10
2018-03-07T00:54:56.424Z,21.80
2018-03-07T00:55:56.345Z,21.90
2018-03-07T00:56:56.265Z,20.80
2018-03-07T00:57:56.191Z,20.10
2018-03-07T00:58:56.108Z,20.90
2018-03-07T00:59:56.028Z,20.60
2018-03-07T01:00:55.950Z,20.20
2018-03-07T01:01:55.873Z,19.30
2018-03-07T01:02:55.792Z,20.40
2018-03-07T01:03:55.713Z,19.00
2018-03-07T01:04:55.635Z,18.70
2018-03-07T01:05:55.554Z,19.40
2018-03-07T01:06:55.476Z,18.40
2018-03-07T01:07:55.396Z,18.50
2018-03-07T01:08:55.319Z,18.10
2018-03-07T01:09:55.238Z,18.00
2018-03-07T01:10:55.160Z,18.70
2018-03-07T01:11:55.081Z,17.80
2018-03-07T01:12:55.001Z,19.80
2018-03-07T01:13:54.922Z,18.40
2018-03-07T01:14:54.843Z,19.30
2018-03-07T01:15:54.765Z,18.60
2018-03-07T01:16:54.684Z,20.10
2018-03-07T01:17:54.605Z,19.50
2018-03-07T01:18:54.524Z,18.70
2018-03-07T01:19:54.446Z,18.70
2018-03-07T01:20:54.367Z,19.50
2018-03-07T01:21:54.287Z,19.50
2018-03-07T01:22:54.213Z,19.00
2018-03-07T01:23:54.129Z,19.80
2018-03-07T01:24:54.050Z,18.50
2018-03-07T01:25:53.970Z,19.60
2018-03-07T01:26:53.891Z,19.90
2018-03-07T01:27:53.811Z,18.80
2018-03-07T01:28:53.732Z,20.10
2018-03-07T01:29:53.652Z,18.70
2018-03-07T01:30:53.574Z,19.80
2018-03-07T01:31:53.494Z,19.20
2018-03-07T01:32:53.414Z,20.70
2018-03-07T01:33:53.335Z,19.60
2018-03-07T01:34:53.257Z,18.20
2018-03-07T01:35:53.176Z,19.90
2018-03-07T01:36:53.095Z,19.20
2018-03-07T01:37:53.017Z,19.90
2018-03-07T01:38:52.938Z,20.00
2018-03-07T01:39:52.859Z,21.30
2018-03-07T01:40:52.778Z,20.40
2018-03-07T01:41:52.700Z,21.30
2018-03-07T01:42:52.621Z,20.00
2018-03-07T01:43:52.541Z,20.60
2018-03-07T01:44:52.461Z,20.70
2018-03-07T01:45:52.388Z,21.90
2018-03-07T01:46:52.302Z,22.40
2018-03-07T01:47:52.223Z,22.20
2018-03-07T01:48:52.142Z,22.50
2018-03-07T01:49:52.065Z,21.50
2018-03-07T01:50:51.989Z,21.80
2018-03-07T01:51:51.906Z,21.20
2018-03-07T01:52:51.825Z,22.20
2018-03-07T01:53:51.747Z,22.00
2018-03-07T01:54:51.667Z,22.70
2018-03-07T01:55:51.588Z,22.70
2018-03-07T01:56:51.507Z,22.90
2018-03-07T01:57:51.428Z,22.50
2018-03-07T01:58:51.353Z,22.60
2018-03-07T01:59:51.274Z,22.50
2018-03-07T02:00:51.190Z,19.30
2018-03-07T02:01:51.111Z,22.80
2018-03-07T02:02:51.032Z,23.70
2018-03-07T02:03:50.952Z,24.00
2018-03-07T02:04:50.872Z,23.20
2018-03-07T02:05:50.792Z,23.70
2018-03-07T02:06:50.713Z,23.20
2018-03-07T02:07:50.642Z,22.90
2018-03-07T02:08:50.554Z,23.00
2018-03-07T02:09:50.474Z,23.50
2018-03-07T02:10:50.396Z,23.30
2018-03-07T02:11:50.315Z,23.70
2018-03-07T02:12:50.235Z,23.40
2018-03-07T02:13:50.156Z,23.30
2018-03-07T02:14:50.078Z,24.20
2018-03-07T02:15:49.997Z,23.40
2018-03-07T02:16:49.919Z,23.10
2018-03-07T02:17:49.838Z,23.40
2018-03-07T02:18:49.759Z,25.10
2018-03-07T02:19:49.679Z,24.10
2018-03-07T02:20:49.598Z,23.50
2018-03-07T02:21:49.519Z,24.00
2018-03-07T02:22:49.440Z,23.20
2018-03-07T02:23:49.362Z,21.30
2018-03-07T02:24:49.282Z,23.40
2018-03-07T02:25:49.201Z,24.00
2018-03-07T02:26:49.123Z,24.40
2018-03-07T02:27:49.042Z,25.10
2018-03-07T02:28:48.962Z,23.60
2018-03-07T02:29:48.883Z,25.20
2018-03-07T02:30:48.806Z,23.80
2018-03-07T02:31:48.724Z,24.30
2018-03-07T02:32:48.645Z,23.80
2018-03-07T02:33:48.565Z,23.30
2018-03-07T02:34:48.485Z,23.60
2018-03-07T02:35:48.406Z,23.40
2018-03-07T02:36:48.329Z,24.50
2018-03-07T02:37:48.250Z,23.70
2018-03-07T02:38:48.167Z,23.60
2018-03-07T02:39:48.088Z,22.70
2018-03-07T02:40:48.007Z,21.90
2018-03-07T02:41:47.929Z,21.80
2018-03-07T02:42:47.901Z,21.40
2018-03-07T02:43:47.774Z,21.10
2018-03-07T02:44:47.689Z,21.30
2018-03-07T02:45:47.609Z,21.70
2018-03-07T02:46:47.529Z,22.00
2018-03-07T02:47:47.449Z,20.70
2018-03-07T02:48:47.370Z,21.50
2018-03-07T02:49:47.292Z,20.40
2018-03-07T02:50:47.220Z,20.20
2018-03-07T02:51:47.133Z,20.40
2018-03-07T02:52:47.052Z,20.10
2018-03-07T02:53:46.974Z,20.90
2018-03-07T02:54:46.894Z,20.90
2018-03-07T02:55:46.814Z,20.30
2018-03-07T02:56:46.737Z,20.00
2018-03-07T02:57:46.656Z,20.10
2018-03-07T02:58:46.577Z,19.80
2018-03-07T02:59:46.497Z,21.00
2018-03-07T03:00:46.417Z,20.20
2018-03-07T03:01:46.338Z,19.80
2018-03-07T03:02:46.260Z,19.10
2018-03-07T03:03:46.179Z,19.50
2018-03-07T03:04:46.101Z,18.30
2018-03-07T03:05:46.020Z,19.40
2018-03-07T03:06:45.940Z,18.90
2018-03-07T03:07:45.862Z,18.00
2018-03-07T03:08:45.781Z,18.70
2018-03-07T03:09:45.700Z,18.00
2018-03-07T03:10:45.623Z,18.10
2018-03-07T03:11:45.542Z,19.40
2018-03-07T03:12:45.463Z,18.10
2018-03-07T03:13:45.385Z,18.30
2018-03-07T03:14:45.304Z,17.50
2018-03-07T03:15:45.224Z,19.00
2018-03-07T03:16:45.144Z,17.80
2018-03-07T03:17:45.066Z,18.70
2018-03-07T03:18:44.986Z,17.90
2018-03-07T03:19:44.906Z,17.40
2018-03-07T03:20:44.827Z,18.00
2018-03-07T03:21:44.746Z,17.40
2018-03-07T03:22:44.669Z,17.30
2018-03-07T03:23:44.589Z,17.20
2018-03-07T03:24:44.509Z,17.70
2018-03-07T03:25:44.429Z,17.20
2018-03-07T03:26:44.350Z,17.50
2018-03-07T03:27:44.272Z,16.70
2018-03-07T03:28:44.190Z,17.70
2018-03-07T03:29:44.114Z,17.70
2018-03-07T03:30:44.034Z,17.40
2018-03-07T03:31:43.956Z,16.80
2018-03-07T03:32:43.874Z,17.70
2018-03-07T03:33:43.793Z,17.60
2018-03-07T03:34:43.715Z,16.60
2018-03-07T03:35:43.640Z,18.20
2018-03-07T03:36:43.557Z,17.50
2018-03-07T03:37:43.481Z,15.90
2018-03-07T03:38:43.402Z,16.20
2018-03-07T03:39:43.319Z,16.70
2018-03-07T03:40:43.240Z,17.00
2018-03-07T03:41:43.160Z,16.90
2018-03-07T03:42:43.087Z,16.70
2018-03-07T03:43:43.003Z,16.50
2018-03-07T03:44:42.925Z,16.00
2018-03-07T03:45:42.844Z,17.60
2018-03-07T03:46:42.764Z,16.50
2018-03-07T03:47:42.684Z,17.40
2018-03-07T03:48:42.604Z,17.00
2018-03-07T03:49:42.524Z,16.60
2018-03-07T03:50:42.445Z,16.40
2018-03-07T03:51:42.366Z,17.90
2018-03-07T03:52:42.286Z,16.50
2018-03-07T03:53:42.206Z,16.80
2018-03-07T03:54:42.127Z,16.50
2018-03-07T03:55:42.050Z,16.70
2018-03-07T03:56:41.967Z,17.50
2018-03-07T03:57:41.888Z,16.80
2018-03-07T03:58:41.809Z,16.30
2018-03-07T03:59:41.728Z,17.00
2018-03-07T04:00:41.647Z,17.10
2018-03-07T04:01:41.567Z,15.50
2018-03-07T04:02:41.488Z,16.00
2018-03-07T04:03:41.407Z,16.50
2018-03-07T04:04:41.327Z,16.30
2018-03-07T04:05:41.247Z,16.40
2018-03-07T04:06:41.167Z,16.00
2018-03-07T04:07:41.087Z,17.30
2018-03-07T04:08:41.005Z,16.90
2018-03-07T04:09:40.926Z,16.70
2018-03-07T04:10:40.846Z,16.10
2018-03-07T04:11:40.765Z,15.50
2018-03-07T04:12:40.685Z,15.60
2018-03-07T04:13:40.604Z,16.20
2018-03-07T04:14:40.524Z,16.30
2018-03-07T04:15:40.444Z,14.90
2018-03-07T04:16:40.363Z,15.30
2018-03-07T04:17:40.284Z,15.60
2018-03-07T04:18:40.201Z,14.90
2018-03-07T04:19:40.121Z,14.90
2018-03-07T04:20:40.043Z,13.90
2018-03-07T04:21:39.961Z,15.10
2018-03-07T04:22:39.879Z,15.80
2018-03-07T04:23:39.798Z,16.40
2018-03-07T04:24:39.716Z,15.50
2018-03-07T04:25:39.636Z,15.00
2018-03-07T04:26:39.555Z,15.60
2018-03-07T04:27:39.475Z,15.00
2018-03-07T04:28:39.393Z,15.50
2018-03-07T04:29:39.310Z,15.80
2018-03-07T04:30:39.231Z,15.70
2018-03-07T04:31:39.152Z,14.30
2018-03-07T04:32:39.068Z,16.50
2018-03-07T04:33:38.987Z,15.60
2018-03-07T04:34:38.906Z,16.30
2018-03-07T04:35:38.824Z,14.40
2018-03-07T04:36:38.743Z,14.80
2018-03-07T04:37:38.661Z,14.70
2018-03-07T04:38:38.581Z,16.30
2018-03-07T04:39:38.500Z,16.30
2018-03-07T04:40:38.432Z,16.30
2018-03-07T04:41:38.335Z,14.90
2018-03-07T04:42:38.255Z,15.40
2018-03-07T04:43:38.172Z,15.50
2018-03-07T04:44:38.091Z,15.30
2018-03-07T04:45:38.009Z,15.80
2018-03-07T04:46:37.927Z,16.50
2018-03-07T04:47:37.847Z,16.20
2018-03-07T04:48:37.765Z,15.90
2018-03-07T04:49:37.686Z,15.20
2018-03-07T04:50:37.603Z,16.50
2018-03-07T04:51:37.521Z,14.40
2018-03-07T04:52:37.441Z,15.70
2018-03-07T04:53:37.357Z,14.60
2018-03-07T04:54:37.275Z,14.80
2018-03-07T04:55:37.192Z,15.90
2018-03-07T04:56:37.112Z,16.90
2018-03-07T04:57:37.031Z,15.40
2018-03-07T04:58:36.949Z,14.80
2018-03-07T04:59:36.866Z,16.10
2018-03-07T05:00:36.783Z,15.20
2018-03-07T05:01:36.703Z,15.80
2018-03-07T05:02:36.662Z,14.20
2018-03-07T05:03:36.539Z,13.60
2018-03-07T05:04:36.457Z,14.10
2018-03-07T05:05:36.375Z,14.70
2018-03-07T05:06:36.293Z,15.60
2018-03-07T05:07:36.213Z,15.20
2018-03-07T05:08:36.128Z,15.60
2018-03-07T05:09:36.048Z,14.40
2018-03-07T05:10:35.966Z,16.70
2018-03-07T05:11:35.883Z,14.40
2018-03-07T05:12:35.802Z,15.20
2018-03-07T05:13:35.720Z,15.60
2018-03-07T05:14:35.638Z,15.20
2018-03-07T05:15:35.556Z,14.90
2018-03-07T05:16:35.473Z,13.50
2018-03-07T05:17:35.392Z,15.30
2018-03-07T05:18:35.310Z,16.20
2018-03-07T05:19:35.229Z,14.40
2018-03-07T05:20:35.145Z,13.80
2018-03-07T05:21:35.063Z,14.80
2018-03-07T05:22:34.982Z,15.50
2018-03-07T05:23:34.901Z,16.00
2018-03-07T05:24:34.817Z,14.80
2018-03-07T05:25:34.736Z,15.20
2018-03-07T05:26:34.954Z,14.40
2018-03-07T05:27:34.572Z,14.00
2018-03-07T05:28:34.488Z,14.70
2018-03-07T05:29:34.407Z,15.50
2018-03-07T05:30:34.326Z,14.20
2018-03-07T05:31:34.242Z,13.70
2018-03-07T05:32:34.160Z,14.20
2018-03-07T05:33:34.081Z,13.20
2018-03-07T05:34:33.996Z,13.60
2018-03-07T05:35:33.915Z,13.90
2018-03-07T05:36:33.832Z,15.30
2018-03-07T05:37:33.750Z,15.40
2018-03-07T05:38:33.671Z,14.60
2018-03-07T05:39:33.586Z,13.50
2018-03-07T05:40:33.504Z,15.10
2018-03-07T05:41:33.421Z,15.80
2018-03-07T05:42:33.340Z,16.50
2018-03-07T05:43:33.255Z,14.30
2018-03-07T05:44:33.174Z,14.20
2018-03-07T05:45:33.092Z,13.40
2018-03-07T05:46:33.011Z,14.00
2018-03-07T05:47:32.928Z,15.70
2018-03-07T05:48:32.846Z,15.10
2018-03-07T05:49:32.762Z,13.50
2018-03-07T05:50:32.682Z,14.00
2018-03-07T05:51:32.600Z,13.40
2018-03-07T05:52:32.518Z,14.40
2018-03-07T05:53:32.435Z,14.70
2018-03-07T05:54:32.355Z,14.00
2018-03-07T05:55:32.286Z,14.10
2018-03-07T05:56:32.192Z,14.10
2018-03-07T05:57:32.110Z,13.80
2018-03-07T05:58:32.028Z,13.10
2018-03-07T05:59:31.946Z,13.10
2018-03-07T06:00:31.864Z,12.90
2018-03-07T06:01:31.783Z,12.40
2018-03-07T06:02:31.706Z,12.80
2018-03-07T06:03:31.619Z,13.10
2018-03-07T06:04:31.536Z,12.60
2018-03-07T06:05:31.455Z,13.50
2018-03-07T06:06:31.373Z,12.10
2018-03-07T06:07:31.296Z,13.10
2018-03-07T06:08:31.208Z,12.00
2018-03-07T06:09:31.128Z,13.50
2018-03-07T06:10:31.047Z,12.60
2018-03-07T06:11:30.966Z,13.30
2018-03-07T06:12:30.893Z,14.10
2018-03-07T06:13:30.801Z,13.40
2018-03-07T06:14:30.720Z,13.80
2018-03-07T06:15:30.639Z,13.70
2018-03-07T06:16:30.557Z,12.80
2018-03-07T06:17:30.476Z,13.50
2018-03-07T06:18:30.394Z,14.70
2018-03-07T06:19:30.312Z,13.10
2018-03-07T06:20:30.232Z,12.40
2018-03-07T06:21:30.150Z,13.50
2018-03-07T06:22:30.069Z,13.20
2018-03-07T06:23:29.988Z,13.40
2018-03-07T06:24:29.905Z,13.00
2018-03-07T06:25:29.825Z,13.40
2018-03-07T06:26:29.744Z,12.50
2018-03-07T06:27:29.663Z,12.80
2018-03-07T06:28:29.580Z,14.40
2018-03-07T06:29:29.501Z,13.70
2018-03-07T06:30:29.424Z,12.70
2018-03-07T06:31:29.339Z,12.80
2018-03-07T06:32:29.257Z,12.90
2018-03-07T06:33:29.176Z,13.20
2018-03-07T06:34:29.097Z,12.40
2018-03-07T06:35:29.015Z,13.00
2018-03-07T06:36:28.933Z,13.30
2018-03-07T06:37:28.854Z,12.80
2018-03-07T06:38:28.772Z,12.80
2018-03-07T06:39:28.692Z,12.80
2018-03-07T06:40:28.611Z,12.90
2018-03-07T06:41:28.537Z,12.50
2018-03-07T06:42:28.492Z,12.20
2018-03-07T06:43:28.370Z,12.60
2018-03-07T06:44:28.289Z,11.80
2018-03-07T06:45:28.209Z,12.70
2018-03-07T06:46:28.129Z,12.00
2018-03-07T06:47:28.048Z,12.10
2018-03-07T06:48:27.967Z,12.40
2018-03-07T06:49:27.885Z,12.60
2018-03-07T06:50:27.804Z,11.30
2018-03-07T06:51:27.726Z,12.00
2018-03-07T06:52:27.647Z,11.70
2018-03-07T06:53:27.564Z,11.40
2018-03-07T06:54:27.484Z,11.60
2018-03-07T06:55:27.405Z,12.00
2018-03-07T06:56:27.327Z,11.30
2018-03-07T06:57:27.244Z,11.20
2018-03-07T06:58:27.165Z,11.50
2018-03-07T06:59:27.084Z,10.60
2018-03-07T07:00:27.012Z,10.70
2018-03-07T07:01:26.925Z,10.30
2018-03-07T07:02:26.844Z,10.80
2018-03-07T07:03:26.765Z,10.50
2018-03-07T07:04:26.684Z,9.80
2018-03-07T07:05:26.627Z,9.90
2018-03-07T07:06:26.523Z,9.50
2018-03-07T07:07:26.444Z,10.00
2018-03-07T07:08:26.366Z,9.50
2018-03-07T07:09:26.286Z,9.70
2018-03-07T07:10:26.210Z,9.90
2018-03-07T07:11:26.126Z,9.60
2018-03-07T07:12:26.045Z,9.20
2018-03-07T07:13:25.965Z,9.00
2018-03-07T07:14:25.888Z,9.50
2018-03-07T07:15:25.806Z,9.00
2018-03-07T07:16:25.725Z,8.90
2018-03-07T07:17:25.645Z,9.10
2018-03-07T07:18:25.567Z,8.50
2018-03-07T07:19:25.485Z,6.70
2018-03-07T07:20:25.405Z,9.40
2018-03-07T07:21:25.326Z,9.30
2018-03-07T07:22:25.247Z,9.00
2018-03-07T07:23:25.170Z,9.20
2018-03-07T07:24:25.123Z,9.30
2018-03-07T07:25:25.007Z,9.60
2018-03-07T07:26:24.927Z,9.00
2018-03-07T07:27:24.851Z,9.50
2018-03-07T07:28:24.766Z,9.10
2018-03-07T07:29:24.689Z,9.20
2018-03-07T07:30:24.607Z,9.20
2018-03-07T07:31:24.528Z,9.30
2018-03-07T07:32:24.447Z,9.60
2018-03-07T07:33:24.367Z,9.80
2018-03-07T07:34:24.288Z,10.50
2018-03-07T07:35:24.209Z,10.30
2018-03-07T07:36:24.127Z,9.40
2018-03-07T07:37:24.140Z,9.70
2018-03-07T07:38:23.968Z,10.20
2018-03-07T07:39:23.889Z,9.80
2018-03-07T07:40:23.809Z,10.50
2018-03-07T07:41:23.729Z,9.50
2018-03-07T07:42:23.654Z,8.90
2018-03-07T07:43:23.619Z,10.30
2018-03-07T07:44:23.490Z,10.40
2018-03-07T07:45:23.410Z,11.00
2018-03-07T07:46:23.332Z,10.20
2018-03-07T07:47:23.275Z,9.30
2018-03-07T07:48:23.174Z,10.00
2018-03-07T07:49:23.091Z,9.80
2018-03-07T07:50:23.014Z,9.20
2018-03-07T07:51:22.935Z,9.50
2018-03-07T07:52:22.858Z,8.90
2018-03-07T07:53:22.777Z,8.70
2018-03-07T07:54:22.696Z,8.70
2018-03-07T07:55:22.616Z,9.60
2018-03-07T07:56:22.541Z,8.90
2018-03-07T07:57:22.465Z,8.90
2018-03-07T07:58:22.380Z,9.50
2018-03-07T07:59:22.303Z,9.60
2018-03-07T08:00:22.221Z,8.80
2018-03-07T08:01:22.142Z,9.20
2018-03-07T08:02:22.062Z,9.10
2018-03-07T08:03:22.011Z,9.50
2018-03-07T08:04:21.903Z,9.20
2018-03-07T08:05:21.825Z,9.50
2018-03-07T08:06:21.746Z,9.00
2018-03-07T08:07:21.667Z,9.20
2018-03-07T08:08:21.588Z,9.10
2018-03-07T08:09:21.508Z,9.00
2018-03-07T08:10:21.430Z,8.30
2018-03-07T08:11:21.351Z,9.40
2018-03-07T08:12:21.274Z,8.80
2018-03-07T08:13:21.193Z,9.10
2018-03-07T08:14:21.117Z,7.90
2018-03-07T08:15:21.039Z,8.90
2018-03-07T08:16:20.959Z,8.90
2018-03-07T08:17:20.880Z,8.60
2018-03-07T08:18:20.897Z,8.90
2018-03-07T08:19:20.725Z,9.00
2018-03-07T08:20:20.646Z,8.50
2018-03-07T08:21:20.568Z,8.90
2018-03-07T08:22:20.495Z,9.20
2018-03-07T08:23:20.412Z,9.40
2018-03-07T08:24:20.333Z,8.70
2018-03-07T08:25:20.253Z,8.10
2018-03-07T08:26:20.177Z,8.10
2018-03-07T08:27:20.098Z,8.20
2018-03-07T08:28:20.019Z,9.00
2018-03-07T08:29:19.942Z,8.20
2018-03-07T08:30:19.862Z,9.20
2018-03-07T08:31:19.784Z,8.80
2018-03-07T08:32:19.706Z,8.20
2018-03-07T08:33:19.629Z,8.30
2018-03-07T08:34:19.549Z,7.70
2018-03-07T08:35:19.470Z,8.20
2018-03-07T08:36:19.393Z,7.80
2018-03-07T08:37:19.318Z,7.90
2018-03-07T08:38:19.237Z,8.10
2018-03-07T08:39:19.160Z,7.80
2018-03-07T08:40:19.080Z,8.00
2018-03-07T08:41:19.000Z,8.30
2018-03-07T08:42:18.923Z,7.70
2018-03-07T08:43:18.845Z,6.80
2018-03-07T08:44:18.768Z,6.20
2018-03-07T08:45:18.688Z,6.90
2018-03-07T08:46:18.610Z,6.50
2018-03-07T08:47:18.532Z,6.70
2018-03-07T08:48:18.457Z,6.60
2018-03-07T08:49:18.375Z,6.40
2018-03-07T08:50:18.299Z,7.00
2018-03-07T08:51:18.221Z,6.70
2018-03-07T08:52:18.142Z,6.00
2018-03-07T08:53:18.065Z,6.80
2018-03-07T08:54:17.986Z,6.20
2018-03-07T08:55:17.907Z,6.70
2018-03-07T08:56:17.829Z,6.60
2018-03-07T08:57:17.752Z,6.70
2018-03-07T08:58:17.674Z,6.50
2018-03-07T08:59:17.596Z,6.40
2018-03-07T09:00:17.526Z,5.40
2018-03-07T09:01:17.440Z,6.00
2018-03-07T09:02:17.363Z,6.60
2018-03-07T09:03:17.286Z,6.70
2018-03-07T09:04:17.208Z,6.70
2018-03-07T09:05:17.130Z,6.70
2018-03-07T09:06:17.054Z,6.80
2018-03-07T09:07:16.978Z,6.60
2018-03-07T09:08:16.896Z,6.20
2018-03-07T09:09:16.819Z,6.80
2018-03-07T09:10:16.745Z,6.60
2018-03-07T09:11:16.664Z,5.90
2018-03-07T09:12:16.586Z,6.50
2018-03-07T09:13:16.508Z,6.40
2018-03-07T09:14:16.431Z,7.10
2018-03-07T09:15:16.354Z,6.60
2018-03-07T09:16:16.276Z,6.90
2018-03-07T09:17:16.199Z,6.10
2018-03-07T09:18:16.122Z,5.80
2018-03-07T09:19:16.050Z,5.40
2018-03-07T09:20:15.967Z,5.10
2018-03-07T09:21:15.889Z,5.10
2018-03-07T09:22:15.813Z,5.40
2018-03-07T09:23:15.737Z,4.80
2018-03-07T09:24:15.657Z,5.00
2018-03-07T09:25:15.579Z,4.80
2018-03-07T09:26:15.504Z,4.60
2018-03-07T09:27:15.427Z,5.10
2018-03-07T09:28:15.349Z,4.80
2018-03-07T09:29:15.272Z,4.80
2018-03-07T09:30:15.195Z,4.60
2018-03-07T09:31:15.117Z,4.00
2018-03-07T09:32:15.038Z,4.80
2018-03-07T09:33:14.963Z,4.60
2018-03-07T09:34:14.886Z,4.70
2018-03-07T09:35:14.810Z,4.90
2018-03-07T09:36:14.731Z,4.70
2018-03-07T09:37:14.653Z,5.10
2018-03-07T09:38:14.578Z,4.40
2018-03-07T09:39:14.505Z,4.70
2018-03-07T09:40:14.426Z,4.70
2018-03-07T09:41:14.348Z,4.50
2018-03-07T09:42:14.270Z,4.00
2018-03-07T09:43:14.194Z,4.50
2018-03-07T09:44:14.116Z,4.50
2018-03-07T09:45:14.040Z,4.50
2018-03-07T09:46:13.963Z,4.30
2018-03-07T09:47:13.886Z,4.40
2018-03-07T09:48:13.808Z,4.30
2018-03-07T09:49:13.732Z,4.80
2018-03-07T09:50:13.656Z,4.90
2018-03-07T09:51:13.579Z,4.50
2018-03-07T09:52:13.500Z,4.50
2018-03-07T09:53:13.425Z,4.30
2018-03-07T09:54:13.349Z,4.10
2018-03-07T09:55:13.277Z,4.30
2018-03-07T09:56:13.230Z,4.20
2018-03-07T09:57:13.119Z,4.10
2018-03-07T09:58:13.042Z,4.40
2018-03-07T09:59:12.966Z,3.90
2018-03-07T10:00:12.888Z,4.30
2018-03-07T10:01:12.812Z,4.00
2018-03-07T10:02:12.736Z,4.10
2018-03-07T10:03:12.659Z,4.30
2018-03-07T10:04:12.582Z,3.50
2018-03-07T10:05:12.506Z,3.70
2018-03-07T10:06:12.430Z,4.20
2018-03-07T10:07:12.355Z,4.10
2018-03-07T10:08:12.278Z,3.90
2018-03-07T10:09:12.202Z,3.80
2018-03-07T10:10:12.126Z,3.90
2018-03-07T10:11:12.050Z,4.00
2018-03-07T10:12:11.974Z,3.90
2018-03-07T10:13:11.897Z,4.30
2018-03-07T10:14:11.822Z,4.20
2018-03-07T10:15:11.746Z,4.10
2018-03-07T10:16:11.669Z,4.00
2018-03-07T10:17:11.593Z,4.70
2018-03-07T10:18:11.516Z,4.50
2018-03-07T10:19:11.442Z,3.80
2018-03-07T10:20:11.366Z,4.50
2018-03-07T10:21:11.289Z,4.60
2018-03-07T10:22:11.213Z,4.10
2018-03-07T10:23:11.138Z,4.20
2018-03-07T10:24:11.059Z,4.40
2018-03-07T10:25:10.982Z,4.40
2018-03-07T10:26:10.905Z,5.10
2018-03-07T10:27:10.837Z,5.10
2018-03-07T10:28:10.753Z,5.70
2018-03-07T10:29:10.676Z,5.30
2018-03-07T10:30:10.600Z,5.80
2018-03-07T10:31:10.522Z,5.90
2018-03-07T10:32:10.446Z,5.80
2018-03-07T10:33:10.370Z,6.10
2018-03-07T10:34:10.292Z,6.40
2018-03-07T10:35:10.216Z,5.60
2018-03-07T10:36:10.138Z,6.60
2018-03-07T10:37:10.063Z,6.60
2018-03-07T10:38:09.987Z,6.10
2018-03-07T10:39:09.909Z,6.70
2018-03-07T10:40:09.831Z,7.10
2018-03-07T10:41:09.756Z,7.20
2018-03-07T10:42:09.680Z,7.40
2018-03-07T10:43:09.603Z,6.20
2018-03-07T10:44:09.527Z,5.80
2018-03-07T10:45:09.463Z,6.20
2018-03-07T10:46:09.375Z,5.90
2018-03-07T10:47:09.353Z,5.10
2018-03-07T10:48:09.223Z,4.90
2018-03-07T10:49:09.147Z,5.30
2018-03-07T10:50:09.072Z,5.10
2018-03-07T10:51:08.995Z,4.80
2018-03-07T10:52:08.920Z,4.80
2018-03-07T10:53:08.844Z,4.00
2018-03-07T10:54:08.771Z,4.10
2018-03-07T10:55:08.693Z,3.50
2018-03-07T10:56:08.617Z,3.70
2018-03-07T10:57:08.540Z,3.90
2018-03-07T10:58:08.465Z,4.00
2018-03-07T10:59:08.389Z,3.90
2018-03-07T11:00:08.313Z,3.80
2018-03-07T11:01:08.237Z,3.40
2018-03-07T11:02:08.161Z,3.40
2018-03-07T11:03:08.086Z,3.70
2018-03-07T11:04:08.008Z,3.40
2018-03-07T11:05:07.932Z,3.70
2018-03-07T11:06:07.856Z,4.00
2018-03-07T11:07:07.780Z,3.90
2018-03-07T11:08:07.702Z,3.90
2018-03-07T11:09:07.625Z,3.80
2018-03-07T11:10:07.549Z,4.20
2018-03-07T11:11:07.472Z,4.00
2018-03-07T11:12:07.396Z,3.80
2018-03-07T11:13:07.320Z,3.40
2018-03-07T11:14:07.244Z,3.80
2018-03-07T11:15:07.168Z,4.10
2018-03-07T11:16:07.092Z,3.80
2018-03-07T11:17:07.015Z,3.80
2018-03-07T11:18:06.938Z,3.50
2018-03-07T11:19:06.865Z,3.80
2018-03-07T11:20:06.784Z,3.40
2018-03-07T11:21:06.710Z,3.60
2018-03-07T11:22:06.631Z,3.80
2018-03-07T11:23:06.555Z,3.70
2018-03-07T11:24:06.478Z,3.80
2018-03-07T11:25:06.403Z,3.60
2018-03-07T11:26:06.329Z,3.80
2018-03-07T11:27:06.249Z,3.80
2018-03-07T11:28:06.171Z,3.90
2018-03-07T11:29:06.096Z,3.80
2018-03-07T11:30:06.018Z,3.70
2018-03-07T11:31:05.940Z,3.80
2018-03-07T11:32:05.862Z,3.90
2018-03-07T11:33:05.784Z,3.70
2018-03-07T11:34:05.707Z,3.70
2018-03-07T11:35:05.630Z,4.00
2018-03-07T11:36:05.552Z,4.10
2018-03-07T11:37:05.474Z,4.30
2018-03-07T11:38:05.397Z,4.30
2018-03-07T11:39:05.324Z,3.70
2018-03-07T11:40:05.243Z,4.10
2018-03-07T11:41:05.163Z,4.30
2018-03-07T11:42:05.088Z,3.70
2018-03-07T11:43:05.011Z,4.10
2018-03-07T11:44:04.932Z,3.80
2018-03-07T11:45:04.901Z,4.40
2018-03-07T11:46:04.779Z,4.40
2018-03-07T11:47:04.702Z,4.00
2018-03-07T11:48:04.623Z,3.90
2018-03-07T11:49:04.546Z,3.60
2018-03-07T11:50:04.470Z,4.00
2018-03-07T11:51:04.394Z,3.80
2018-03-07T11:52:04.315Z,4.20
2018-03-07T11:53:04.239Z,4.10
2018-03-07T11:54:04.161Z,3.80
2018-03-07T11:55:04.085Z,4.10
2018-03-07T11:56:04.014Z,3.30
2018-03-07T11:57:03.930Z,3.60
2018-03-07T11:58:03.854Z,3.70
2018-03-07T11:59:03.776Z,3.40
2018-03-07T12:00:04.004Z,3.10
2018-03-07T12:01:03.624Z,3.10
2018-03-07T12:02:03.548Z,2.90
2018-03-07T12:03:03.471Z,3.20
2018-03-07T12:04:03.394Z,3.40
2018-03-07T12:05:03.322Z,3.50
2018-03-07T12:06:03.243Z,2.50
2018-03-07T12:07:03.167Z,2.60
2018-03-07T12:08:03.091Z,2.40
2018-03-07T12:09:03.017Z,2.10
2018-03-07T12:10:02.944Z,2.30
2018-03-07T12:11:02.867Z,2.00
2018-03-07T12:12:02.791Z,1.80
2018-03-07T12:13:02.717Z,1.80
2018-03-07T12:14:02.642Z,1.60
2018-03-07T12:15:02.568Z,1.50
2018-03-07T12:16:02.492Z,1.30
2018-03-07T12:17:02.423Z,1.40
2018-03-07T12:18:02.345Z,1.20
2018-03-07T12:19:02.270Z,1.30
2018-03-07T12:20:02.193Z,1.40
2018-03-07T12:21:02.120Z,1.40
2018-03-07T12:22:02.046Z,1.30
2018-03-07T12:23:01.971Z,1.30
2018-03-07T12:24:01.895Z,1.50
2018-03-07T12:25:01.820Z,1.70
2018-03-07T12:26:01.748Z,2.00
2018-03-07T12:27:01.671Z,1.90
2018-03-07T12:28:01.595Z,1.70
2018-03-07T12:29:01.520Z,1.50
2018-03-07T12:30:01.445Z,1.40
2018-03-07T12:31:01.371Z,1.10
2018-03-07T12:32:01.292Z,1.30
2018-03-07T12:33:01.217Z,1.40
2018-03-07T12:34:01.142Z,1.60
2018-03-07T12:35:01.066Z,1.60
2018-03-07T12:36:00.993Z,1.30
2018-03-07T12:37:00.914Z,1.50
2018-03-07T12:38:00.838Z,1.30
2018-03-07T12:39:00.762Z,1.50
2018-03-07T12:40:00.688Z,1.40
2018-03-07T12:41:00.611Z,2.50
2018-03-07T12:42:00.541Z,4.50
2018-03-07T12:43:00.459Z,3.00
2018-03-07T12:44:00.382Z,2.30
2018-03-07T12:45:00.306Z,1.90
2018-03-07T12:46:00.234Z,1.80
2018-03-07T12:47:00.156Z,1.30
2018-03-07T12:48:00.080Z,1.40
2018-03-07T12:49:00.004Z,1.50
2018-03-07T12:49:59.928Z,1.30
2018-03-07T12:50:59.854Z,1.70
2018-03-07T12:51:59.777Z,1.50
2018-03-07T12:52:59.701Z,1.70
2018-03-07T12:53:59.626Z,1.80
2018-03-07T12:54:59.549Z,1.60
2018-03-07T12:55:59.475Z,1.60
2018-03-07T12:56:59.400Z,1.70
2018-03-07T12:57:59.323Z,1.40
2018-03-07T12:58:59.247Z,1.40
2018-03-07T12:59:59.171Z,1.40
2018-03-07T13:00:59.098Z,1.40
2018-03-07T13:01:59.019Z,1.50